sensor_id;sensor_type;location;lat;lon;timestamp;pressure;altitude;pressure_sealevel;temperature;humidity
20909;BME280;10614;53.198;6.570;2023-04-06T00:01:44;101947.69;;;6.71;59.74
20909;BME280;10614;53.198;6.570;2023-04-06T00:03:47;101947.72;;;6.66;59.38
20909;BME280;10614;53.198;6.570;2023-04-06T00:05:49;101947.75;;;6.63;59.33
20909;BME280;10614;53.198;6.570;2023-04-06T00:07:51;101948.59;;;6.62;59.57
20909;BME280;10614;53.198;6.570;2023-04-06T00:09:54;101947.75;;;6.59;59.50
20909;BME280;10614;53.198;6.570;2023-04-06T00:11:57;101944.28;;;6.55;59.84
20909;BME280;10614;53.198;6.570;2023-04-06T00:13:59;101932.97;;;6.50;60.18
20909;BME280;10614;53.198;6.570;2023-04-06T00:16:01;101945.19;;;6.48;61.29
20909;BME280;10614;53.198;6.570;2023-04-06T00:18:03;101940.84;;;6.44;61.20
20909;BME280;10614;53.198;6.570;2023-04-06T00:20:06;101935.66;;;6.39;61.57
20909;BME280;10614;53.198;6.570;2023-04-06T00:22:08;101938.28;;;6.36;61.19
20909;BME280;10614;53.198;6.570;2023-04-06T00:24:10;101933.97;;;6.30;61.96
20909;BME280;10614;53.198;6.570;2023-04-06T00:26:12;101938.31;;;6.27;61.76
20909;BME280;10614;53.198;6.570;2023-04-06T00:28:15;101933.13;;;6.25;61.69
20909;BME280;10614;53.198;6.570;2023-04-06T00:30:17;101926.16;;;6.15;62.44
20909;BME280;10614;53.198;6.570;2023-04-06T00:32:19;101925.34;;;6.11;62.37
20909;BME280;10614;53.198;6.570;2023-04-06T00:34:21;101923.59;;;6.09;63.63
20909;BME280;10614;53.198;6.570;2023-04-06T00:36:23;101920.13;;;6.07;63.24
20909;BME280;10614;53.198;6.570;2023-04-06T00:38:25;101925.34;;;6.07;64.12
20909;BME280;10614;53.198;6.570;2023-04-06T00:40:27;101911.41;;;6.06;64.05
20909;BME280;10614;53.198;6.570;2023-04-06T00:42:29;101914.88;;;6.04;64.03
20909;BME280;10614;53.198;6.570;2023-04-06T00:44:32;101915.78;;;6.03;63.55
20909;BME280;10614;53.198;6.570;2023-04-06T00:46:39;101911.44;;;6.02;64.28
20909;BME280;10614;53.198;6.570;2023-04-06T00:48:41;101911.44;;;5.99;64.11
20909;BME280;10614;53.198;6.570;2023-04-06T00:50:43;101907.94;;;5.97;64.28
20909;BME280;10614;53.198;6.570;2023-04-06T00:52:45;101910.53;;;5.93;64.95
20909;BME280;10614;53.198;6.570;2023-04-06T00:54:46;101905.34;;;5.90;64.59
20909;BME280;10614;53.198;6.570;2023-04-06T00:56:48;101901.88;;;5.88;63.98
20909;BME280;10614;53.198;6.570;2023-04-06T00:58:50;101897.50;;;5.83;64.97
20909;BME280;10614;53.198;6.570;2023-04-06T01:00:53;101893.19;;;5.79;65.11
20909;BME280;10614;53.198;6.570;2023-04-06T01:02:59;101887.13;;;5.74;65.24
20909;BME280;10614;53.198;6.570;2023-04-06T01:05:01;101889.72;;;5.72;66.07
20909;BME280;10614;53.198;6.570;2023-04-06T01:07:04;101886.25;;;5.70;65.44
20909;BME280;10614;53.198;6.570;2023-04-06T01:09:05;101876.66;;;5.66;65.56
20909;BME280;10614;53.198;6.570;2023-04-06T01:11:07;101877.53;;;5.66;66.38
20909;BME280;10614;53.198;6.570;2023-04-06T01:13:09;101881.03;;;5.65;66.35
20909;BME280;10614;53.198;6.570;2023-04-06T01:15:10;101874.94;;;5.62;65.51
20909;BME280;10614;53.198;6.570;2023-04-06T01:17:14;101871.47;;;5.61;66.19
20909;BME280;10614;53.198;6.570;2023-04-06T01:19:15;101868.88;;;5.60;65.59
20909;BME280;10614;53.198;6.570;2023-04-06T01:21:17;101868.00;;;5.56;65.52
20909;BME280;10614;53.198;6.570;2023-04-06T01:23:21;101862.75;;;5.55;65.55
20909;BME280;10614;53.198;6.570;2023-04-06T01:25:23;101868.00;;;5.55;65.93
20909;BME280;10614;53.198;6.570;2023-04-06T01:27:25;101861.03;;;5.47;66.41
20909;BME280;10614;53.198;6.570;2023-04-06T01:29:28;101871.50;;;5.43;66.52
20909;BME280;10614;53.198;6.570;2023-04-06T01:31:30;101860.22;;;5.39;66.12
20909;BME280;10614;53.198;6.570;2023-04-06T01:33:32;101861.94;;;5.40;66.38
20909;BME280;10614;53.198;6.570;2023-04-06T01:35:33;101857.59;;;5.39;67.04
20909;BME280;10614;53.198;6.570;2023-04-06T01:37:35;101861.06;;;5.38;66.63
20909;BME280;10614;53.198;6.570;2023-04-06T01:39:38;101861.09;;;5.37;65.52
20909;BME280;10614;53.198;6.570;2023-04-06T01:41:40;101855.00;;;5.32;66.46
20909;BME280;10614;53.198;6.570;2023-04-06T01:43:43;101855.00;;;5.30;66.92
20909;BME280;10614;53.198;6.570;2023-04-06T01:45:45;101849.78;;;5.28;67.55
20909;BME280;10614;53.198;6.570;2023-04-06T01:47:47;101847.19;;;5.27;67.03
20909;BME280;10614;53.198;6.570;2023-04-06T01:49:49;101846.31;;;5.25;67.59
20909;BME280;10614;53.198;6.570;2023-04-06T01:51:50;101848.94;;;5.23;67.13
20909;BME280;10614;53.198;6.570;2023-04-06T01:53:52;101843.69;;;5.22;66.35
20909;BME280;10614;53.198;6.570;2023-04-06T01:55:55;101839.38;;;5.18;67.03
20909;BME280;10614;53.198;6.570;2023-04-06T01:57:57;101841.97;;;5.16;67.63
20909;BME280;10614;53.198;6.570;2023-04-06T01:59:59;101837.63;;;5.14;68.15
20909;BME280;10614;53.198;6.570;2023-04-06T02:02:00;101834.16;;;5.12;67.30
20909;BME280;10614;53.198;6.570;2023-04-06T02:04:02;101839.38;;;5.10;67.18
20909;BME280;10614;53.198;6.570;2023-04-06T02:06:04;101833.28;;;5.06;68.15
20909;BME280;10614;53.198;6.570;2023-04-06T02:08:06;101835.91;;;5.03;68.61
20909;BME280;10614;53.198;6.570;2023-04-06T02:10:11;101829.81;;;4.98;68.87
20909;BME280;10614;53.198;6.570;2023-04-06T02:12:14;101829.84;;;4.97;67.87
20909;BME280;10614;53.198;6.570;2023-04-06T02:14:16;101831.56;;;4.95;68.52
20909;BME280;10614;53.198;6.570;2023-04-06T02:16:18;101823.72;;;4.93;68.10
20909;BME280;10614;53.198;6.570;2023-04-06T02:18:20;101824.63;;;4.92;67.94
20909;BME280;10614;53.198;6.570;2023-04-06T02:20:22;101816.78;;;4.89;68.57
20909;BME280;10614;53.198;6.570;2023-04-06T02:22:24;101825.47;;;4.88;67.98
20909;BME280;10614;53.198;6.570;2023-04-06T02:24:26;101819.41;;;4.86;68.86
20909;BME280;10614;53.198;6.570;2023-04-06T02:26:27;101813.31;;;4.81;68.66
20909;BME280;10614;53.198;6.570;2023-04-06T02:28:30;101809.84;;;4.79;69.68
20909;BME280;10614;53.198;6.570;2023-04-06T02:30:32;101813.31;;;4.76;69.01
20909;BME280;10614;53.198;6.570;2023-04-06T02:32:34;101813.31;;;4.75;69.28
20909;BME280;10614;53.198;6.570;2023-04-06T02:34:36;101815.94;;;4.72;70.29
20909;BME280;10614;53.198;6.570;2023-04-06T02:36:38;101813.31;;;4.69;70.57
20909;BME280;10614;53.198;6.570;2023-04-06T02:38:39;101812.47;;;4.67;70.39
20909;BME280;10614;53.198;6.570;2023-04-06T02:40:41;101805.47;;;4.65;70.96
20909;BME280;10614;53.198;6.570;2023-04-06T02:42:43;101802.00;;;4.63;69.69
20909;BME280;10614;53.198;6.570;2023-04-06T02:44:46;101822.00;;;4.63;71.17
20909;BME280;10614;53.198;6.570;2023-04-06T02:46:48;101807.22;;;4.60;70.29
20909;BME280;10614;53.198;6.570;2023-04-06T02:48:50;101808.09;;;4.55;70.41
20909;BME280;10614;53.198;6.570;2023-04-06T02:50:52;101808.09;;;4.52;71.25
20909;BME280;10614;53.198;6.570;2023-04-06T02:52:53;101805.47;;;4.49;71.33
20909;BME280;10614;53.198;6.570;2023-04-06T02:54:55;101802.88;;;4.47;71.38
20909;BME280;10614;53.198;6.570;2023-04-06T02:56:58;101799.41;;;4.48;71.01
20909;BME280;10614;53.198;6.570;2023-04-06T02:58:59;101799.41;;;4.45;70.53
20909;BME280;10614;53.198;6.570;2023-04-06T03:01:02;101799.41;;;4.43;70.38
20909;BME280;10614;53.198;6.570;2023-04-06T03:03:04;101799.41;;;4.39;70.71
20909;BME280;10614;53.198;6.570;2023-04-06T03:05:07;101795.91;;;4.37;71.55
20909;BME280;10614;53.198;6.570;2023-04-06T03:07:09;101790.72;;;4.34;70.76
20909;BME280;10614;53.198;6.570;2023-04-06T03:09:11;101791.59;;;4.31;71.44
20909;BME280;10614;53.198;6.570;2023-04-06T03:11:14;101792.44;;;4.32;71.36
20909;BME280;10614;53.198;6.570;2023-04-06T03:13:16;101789.84;;;4.27;70.82
20909;BME280;10614;53.198;6.570;2023-04-06T03:15:17;101791.56;;;4.27;71.97
20909;BME280;10614;53.198;6.570;2023-04-06T03:17:21;101782.88;;;4.25;72.04
20909;BME280;10614;53.198;6.570;2023-04-06T03:19:22;101787.22;;;4.22;71.64
20909;BME280;10614;53.198;6.570;2023-04-06T03:21:24;101789.81;;;4.21;71.70
20909;BME280;10614;53.198;6.570;2023-04-06T03:23:26;101792.41;;;4.16;71.83
20909;BME280;10614;53.198;6.570;2023-04-06T03:25:27;101787.19;;;4.16;72.22
20909;BME280;10614;53.198;6.570;2023-04-06T03:27:30;101783.72;;;4.16;71.32
20909;BME280;10614;53.198;6.570;2023-04-06T03:29:32;101782.00;;;4.13;71.35
20909;BME280;10614;53.198;6.570;2023-04-06T03:31:34;101779.38;;;4.12;72.57
20909;BME280;10614;53.198;6.570;2023-04-06T03:33:37;101778.53;;;4.10;72.21
20909;BME280;10614;53.198;6.570;2023-04-06T03:35:39;101780.25;;;4.08;72.02
20909;BME280;10614;53.198;6.570;2023-04-06T03:37:41;101780.22;;;4.05;72.56
20909;BME280;10614;53.198;6.570;2023-04-06T03:39:43;101777.63;;;4.03;72.01
20909;BME280;10614;53.198;6.570;2023-04-06T03:41:45;101774.16;;;4.01;71.58
20909;BME280;10614;53.198;6.570;2023-04-06T03:43:47;101779.34;;;3.99;72.71
20909;BME280;10614;53.198;6.570;2023-04-06T03:45:49;101781.94;;;3.98;71.84
20909;BME280;10614;53.198;6.570;2023-04-06T03:47:51;101778.50;;;3.96;71.57
20909;BME280;10614;53.198;6.570;2023-04-06T03:49:54;101769.78;;;3.92;72.23
20909;BME280;10614;53.198;6.570;2023-04-06T03:51:56;101771.53;;;3.89;72.14
20909;BME280;10614;53.198;6.570;2023-04-06T03:53:58;101781.94;;;3.89;72.15
20909;BME280;10614;53.198;6.570;2023-04-06T03:56:00;101776.72;;;3.86;72.56
20909;BME280;10614;53.198;6.570;2023-04-06T03:58:01;101774.09;;;3.81;72.06
20909;BME280;10614;53.198;6.570;2023-04-06T04:00:04;101776.72;;;3.79;72.35
20909;BME280;10614;53.198;6.570;2023-04-06T04:02:06;101762.81;;;3.76;73.57
20909;BME280;10614;53.198;6.570;2023-04-06T04:04:08;101774.06;;;3.73;72.92
20909;BME280;10614;53.198;6.570;2023-04-06T04:06:11;101774.97;;;3.72;72.61
20909;BME280;10614;53.198;6.570;2023-04-06T04:08:13;101766.28;;;3.70;73.52
20909;BME280;10614;53.198;6.570;2023-04-06T04:10:14;101770.59;;;3.68;74.04
20909;BME280;10614;53.198;6.570;2023-04-06T04:12:16;101771.44;;;3.64;73.97
20909;BME280;10614;53.198;6.570;2023-04-06T04:14:18;101769.72;;;3.63;73.89
20909;BME280;10614;53.198;6.570;2023-04-06T04:16:20;101774.03;;;3.61;74.21
20909;BME280;10614;53.198;6.570;2023-04-06T04:18:22;101772.28;;;3.57;73.60
20909;BME280;10614;53.198;6.570;2023-04-06T04:20:24;101773.16;;;3.54;73.22
20909;BME280;10614;53.198;6.570;2023-04-06T04:22:27;101772.25;;;3.51;73.82
20909;BME280;10614;53.198;6.570;2023-04-06T04:24:29;101767.94;;;3.50;73.98
20909;BME280;10614;53.198;6.570;2023-04-06T04:26:31;101759.22;;;3.46;74.46
20909;BME280;10614;53.198;6.570;2023-04-06T04:28:32;101766.16;;;3.46;74.18
20909;BME280;10614;53.198;6.570;2023-04-06T04:30:34;101763.56;;;3.43;74.47
20909;BME280;10614;53.198;6.570;2023-04-06T04:32:36;101761.81;;;3.42;73.46
20909;BME280;10614;53.198;6.570;2023-04-06T04:34:37;101760.94;;;3.40;74.31
20909;BME280;10614;53.198;6.570;2023-04-06T04:36:40;101773.09;;;3.37;74.27
20909;BME280;10614;53.198;6.570;2023-04-06T04:38:43;101771.31;;;3.36;73.30
20909;BME280;10614;53.198;6.570;2023-04-06T04:40:45;101765.25;;;3.33;74.11
20909;BME280;10614;53.198;6.570;2023-04-06T04:42:49;101762.63;;;3.31;73.78
20909;BME280;10614;53.198;6.570;2023-04-06T04:44:51;101762.63;;;3.28;73.34
20909;BME280;10614;53.198;6.570;2023-04-06T04:46:53;101761.78;;;3.28;74.08
20909;BME280;10614;53.198;6.570;2023-04-06T04:48:55;101757.38;;;3.25;73.66
20909;BME280;10614;53.198;6.570;2023-04-06T04:50:57;101765.22;;;3.24;73.25
20909;BME280;10614;53.198;6.570;2023-04-06T04:52:59;101762.59;;;3.22;73.92
20909;BME280;10614;53.198;6.570;2023-04-06T04:55:02;101759.09;;;3.20;73.69
20909;BME280;10614;53.198;6.570;2023-04-06T04:57:04;101760.84;;;3.20;74.12
20909;BME280;10614;53.198;6.570;2023-04-06T04:59:06;101758.22;;;3.18;73.68
20909;BME280;10614;53.198;6.570;2023-04-06T05:01:07;101765.13;;;3.16;74.10
20909;BME280;10614;53.198;6.570;2023-04-06T05:03:14;101753.88;;;3.14;73.71
20909;BME280;10614;53.198;6.570;2023-04-06T05:05:18;101764.28;;;3.14;73.76
20909;BME280;10614;53.198;6.570;2023-04-06T05:07:22;101759.94;;;3.10;74.39
20909;BME280;10614;53.198;6.570;2023-04-06T05:09:24;101762.50;;;3.08;74.21
20909;BME280;10614;53.198;6.570;2023-04-06T05:11:27;101762.50;;;3.05;74.35
20909;BME280;10614;53.198;6.570;2023-04-06T05:13:29;101759.88;;;3.04;74.14
20909;BME280;10614;53.198;6.570;2023-04-06T05:15:31;101760.75;;;3.03;73.83
20909;BME280;10614;53.198;6.570;2023-04-06T05:17:34;101757.28;;;3.01;74.56
20909;BME280;10614;53.198;6.570;2023-04-06T05:19:36;101753.78;;;2.99;74.61
20909;BME280;10614;53.198;6.570;2023-04-06T05:21:38;101753.78;;;2.99;74.74
20909;BME280;10614;53.198;6.570;2023-04-06T05:23:40;101760.72;;;2.98;74.74
20909;BME280;10614;53.198;6.570;2023-04-06T05:25:41;101757.25;;;2.98;73.91
20909;BME280;10614;53.198;6.570;2023-04-06T05:27:44;101757.25;;;2.98;74.56
20909;BME280;10614;53.198;6.570;2023-04-06T05:29:46;101754.66;;;2.98;74.75
20909;BME280;10614;53.198;6.570;2023-04-06T05:31:48;101762.44;;;2.96;74.50
20909;BME280;10614;53.198;6.570;2023-04-06T05:33:50;101754.63;;;2.93;74.09
20909;BME280;10614;53.198;6.570;2023-04-06T05:35:52;101758.06;;;2.92;74.25
20909;BME280;10614;53.198;6.570;2023-04-06T05:37:54;101754.63;;;2.93;74.51
20909;BME280;10614;53.198;6.570;2023-04-06T05:39:55;101751.13;;;2.92;74.47
20909;BME280;10614;53.198;6.570;2023-04-06T05:41:57;101754.63;;;2.93;74.93
20909;BME280;10614;53.198;6.570;2023-04-06T05:44:00;101749.41;;;2.91;74.73
20909;BME280;10614;53.198;6.570;2023-04-06T05:46:03;101749.38;;;2.90;74.78
20909;BME280;10614;53.198;6.570;2023-04-06T05:48:05;101743.31;;;2.86;74.79
20909;BME280;10614;53.198;6.570;2023-04-06T05:50:08;101745.94;;;2.89;74.75
20909;BME280;10614;53.198;6.570;2023-04-06T05:52:09;101744.19;;;2.88;75.00
20909;BME280;10614;53.198;6.570;2023-04-06T05:54:11;101741.59;;;2.90;75.08
20909;BME280;10614;53.198;6.570;2023-04-06T05:56:13;101739.00;;;2.88;74.58
20909;BME280;10614;53.198;6.570;2023-04-06T05:58:14;101744.19;;;2.88;75.17
20909;BME280;10614;53.198;6.570;2023-04-06T06:00:20;101744.19;;;2.87;74.99
20909;BME280;10614;53.198;6.570;2023-04-06T06:02:22;101744.19;;;2.88;74.92
20909;BME280;10614;53.198;6.570;2023-04-06T06:04:24;101732.94;;;2.89;75.25
20909;BME280;10614;53.198;6.570;2023-04-06T06:06:27;101739.88;;;2.90;75.49
20909;BME280;10614;53.198;6.570;2023-04-06T06:08:30;101738.13;;;2.92;74.54
20909;BME280;10614;53.198;6.570;2023-04-06T06:10:32;101734.66;;;2.92;74.45
20909;BME280;10614;53.198;6.570;2023-04-06T06:12:33;101736.41;;;2.91;75.00
20909;BME280;10614;53.198;6.570;2023-04-06T06:14:35;101741.63;;;2.93;74.84
20909;BME280;10614;53.198;6.570;2023-04-06T06:16:38;101734.69;;;2.93;75.02
20909;BME280;10614;53.198;6.570;2023-04-06T06:18:40;101728.63;;;2.94;75.12
20909;BME280;10614;53.198;6.570;2023-04-06T06:20:42;101725.16;;;2.95;74.58
20909;BME280;10614;53.198;6.570;2023-04-06T06:22:44;101731.25;;;2.98;74.76
20909;BME280;10614;53.198;6.570;2023-04-06T06:24:46;101728.63;;;2.99;74.52
20909;BME280;10614;53.198;6.570;2023-04-06T06:26:47;101733.00;;;3.02;74.77
20909;BME280;10614;53.198;6.570;2023-04-06T06:28:49;101730.44;;;3.05;74.53
20909;BME280;10614;53.198;6.570;2023-04-06T06:30:51;101725.22;;;3.05;74.85
20909;BME280;10614;53.198;6.570;2023-04-06T06:32:54;101723.50;;;3.07;74.83
20909;BME280;10614;53.198;6.570;2023-04-06T06:34:56;101727.84;;;3.08;74.79
20909;BME280;10614;53.198;6.570;2023-04-06T06:36:57;101727.84;;;3.09;74.34
20909;BME280;10614;53.198;6.570;2023-04-06T06:39:00;101733.06;;;3.12;74.22
20909;BME280;10614;53.198;6.570;2023-04-06T06:41:03;101733.94;;;3.14;74.39
20909;BME280;10614;53.198;6.570;2023-04-06T06:43:05;101733.91;;;3.16;74.18
20909;BME280;10614;53.198;6.570;2023-04-06T06:45:08;101734.81;;;3.18;74.29
20909;BME280;10614;53.198;6.570;2023-04-06T06:47:10;101734.81;;;3.20;74.42
20909;BME280;10614;53.198;6.570;2023-04-06T06:49:13;101730.50;;;3.22;74.03
20909;BME280;10614;53.198;6.570;2023-04-06T06:51:15;101730.53;;;3.26;74.59
20909;BME280;10614;53.198;6.570;2023-04-06T06:53:17;101724.44;;;3.27;74.43
20909;BME280;10614;53.198;6.570;2023-04-06T06:55:21;101722.72;;;3.29;74.90
20909;BME280;10614;53.198;6.570;2023-04-06T06:57:22;101728.81;;;3.34;75.51
20909;BME280;10614;53.198;6.570;2023-04-06T06:59:24;101725.34;;;3.34;75.26
20909;BME280;10614;53.198;6.570;2023-04-06T07:01:26;101727.09;;;3.38;74.94
20909;BME280;10614;53.198;6.570;2023-04-06T07:03:27;101728.84;;;3.41;74.77
20909;BME280;10614;53.198;6.570;2023-04-06T07:05:32;101726.25;;;3.44;74.92
20909;BME280;10614;53.198;6.570;2023-04-06T07:07:34;101728.00;;;3.48;74.79
20909;BME280;10614;53.198;6.570;2023-04-06T07:09:36;101722.81;;;3.49;75.76
20909;BME280;10614;53.198;6.570;2023-04-06T07:11:38;101721.94;;;3.52;74.74
20909;BME280;10614;53.198;6.570;2023-04-06T07:13:39;101726.31;;;3.56;74.79
20909;BME280;10614;53.198;6.570;2023-04-06T07:15:41;101717.63;;;3.58;74.72
20909;BME280;10614;53.198;6.570;2023-04-06T07:17:43;101715.88;;;3.62;75.04
20909;BME280;10614;53.198;6.570;2023-04-06T07:19:45;101715.03;;;3.66;74.13
20909;BME280;10614;53.198;6.570;2023-04-06T07:21:48;101719.41;;;3.70;74.68
20909;BME280;10614;53.198;6.570;2023-04-06T07:23:51;101709.84;;;3.74;74.73
20909;BME280;10614;53.198;6.570;2023-04-06T07:25:53;101708.97;;;3.76;74.02
20909;BME280;10614;53.198;6.570;2023-04-06T07:27:55;101706.41;;;3.83;74.42
20909;BME280;10614;53.198;6.570;2023-04-06T07:29:57;101711.63;;;3.87;73.92
20909;BME280;10614;53.198;6.570;2023-04-06T07:31:59;101711.63;;;3.92;73.16
20909;BME280;10614;53.198;6.570;2023-04-06T07:34:02;101702.94;;;3.96;73.63
20909;BME280;10614;53.198;6.570;2023-04-06T07:36:04;101707.28;;;4.00;72.44
20909;BME280;10614;53.198;6.570;2023-04-06T07:38:08;101703.81;;;4.04;73.26
20909;BME280;10614;53.198;6.570;2023-04-06T07:40:10;101695.16;;;4.10;71.89
20909;BME280;10614;53.198;6.570;2023-04-06T07:42:12;101699.47;;;4.14;71.93
20909;BME280;10614;53.198;6.570;2023-04-06T07:44:14;101699.47;;;4.20;71.49
20909;BME280;10614;53.198;6.570;2023-04-06T07:46:16;101696.88;;;4.25;70.77
20909;BME280;10614;53.198;6.570;2023-04-06T07:48:17;101702.09;;;4.29;70.66
20909;BME280;10614;53.198;6.570;2023-04-06T07:50:19;101691.66;;;4.31;70.87
20909;BME280;10614;53.198;6.570;2023-04-06T07:52:21;101690.78;;;4.35;70.17
20909;BME280;10614;53.198;6.570;2023-04-06T07:54:24;101688.19;;;4.41;70.27
20909;BME280;10614;53.198;6.570;2023-04-06T07:56:26;101676.88;;;4.47;70.55
20909;BME280;10614;53.198;6.570;2023-04-06T07:58:28;101688.16;;;4.50;70.71
20909;BME280;10614;53.198;6.570;2023-04-06T08:00:30;101685.53;;;4.56;69.74
20909;BME280;10614;53.198;6.570;2023-04-06T08:02:31;101684.66;;;4.62;69.25
20909;BME280;10614;53.198;6.570;2023-04-06T08:04:33;101682.91;;;4.65;69.94
20909;BME280;10614;53.198;6.570;2023-04-06T08:06:35;101684.66;;;4.70;70.40
20909;BME280;10614;53.198;6.570;2023-04-06T08:08:37;101682.91;;;4.72;70.36
20909;BME280;10614;53.198;6.570;2023-04-06T08:10:40;101686.38;;;4.77;69.74
20909;BME280;10614;53.198;6.570;2023-04-06T08:12:41;101681.13;;;4.80;70.78
20909;BME280;10614;53.198;6.570;2023-04-06T08:14:43;101687.22;;;4.85;70.73
20909;BME280;10614;53.198;6.570;2023-04-06T08:16:45;101675.91;;;4.88;69.97
20909;BME280;10614;53.198;6.570;2023-04-06T08:18:47;101681.09;;;4.97;69.92
20909;BME280;10614;53.198;6.570;2023-04-06T08:20:49;101676.72;;;5.00;69.75
20909;BME280;10614;53.198;6.570;2023-04-06T08:22:51;101676.72;;;5.05;70.23
20909;BME280;10614;53.198;6.570;2023-04-06T08:24:53;101681.06;;;5.09;70.55
20909;BME280;10614;53.198;6.570;2023-04-06T08:26:57;101680.19;;;5.12;69.87
20909;BME280;10614;53.198;6.570;2023-04-06T08:28:59;101676.69;;;5.14;69.34
20909;BME280;10614;53.198;6.570;2023-04-06T08:31:03;101674.91;;;5.24;69.12
20909;BME280;10614;53.198;6.570;2023-04-06T08:33:05;101675.72;;;5.31;69.28
20909;BME280;10614;53.198;6.570;2023-04-06T08:35:08;101667.88;;;5.37;69.07
20909;BME280;10614;53.198;6.570;2023-04-06T08:37:09;101669.63;;;5.41;68.50
20909;BME280;10614;53.198;6.570;2023-04-06T08:39:11;101672.16;;;5.47;68.80
20909;BME280;10614;53.198;6.570;2023-04-06T08:41:13;101673.00;;;5.52;68.42
20909;BME280;10614;53.198;6.570;2023-04-06T08:43:17;101670.38;;;5.58;67.83
20909;BME280;10614;53.198;6.570;2023-04-06T08:45:21;101672.94;;;5.66;67.73
20909;BME280;10614;53.198;6.570;2023-04-06T08:47:23;101674.63;;;5.73;67.08
20909;BME280;10614;53.198;6.570;2023-04-06T08:49:26;101671.13;;;5.77;67.61
20909;BME280;10614;53.198;6.570;2023-04-06T08:51:29;101664.09;;;5.84;67.25
20909;BME280;10614;53.198;6.570;2023-04-06T08:53:31;101662.31;;;5.90;67.22
20909;BME280;10614;53.198;6.570;2023-04-06T08:55:34;101660.56;;;5.97;67.81
20909;BME280;10614;53.198;6.570;2023-04-06T08:57:36;101657.88;;;6.05;67.59
20909;BME280;10614;53.198;6.570;2023-04-06T08:59:40;101663.91;;;6.15;67.64
20909;BME280;10614;53.198;6.570;2023-04-06T09:01:44;101661.22;;;6.22;66.31
20909;BME280;10614;53.198;6.570;2023-04-06T09:03:48;101663.78;;;6.30;66.11
20909;BME280;10614;53.198;6.570;2023-04-06T09:05:51;101655.84;;;6.38;66.48
20909;BME280;10614;53.198;6.570;2023-04-06T09:07:53;101661.00;;;6.47;65.67
20909;BME280;10614;53.198;6.570;2023-04-06T09:09:54;101656.53;;;6.58;64.54
20909;BME280;10614;53.198;6.570;2023-04-06T09:11:56;101654.69;;;6.65;65.51
20909;BME280;10614;53.198;6.570;2023-04-06T09:14:06;101654.63;;;6.71;64.81
20909;BME280;10614;53.198;6.570;2023-04-06T09:16:09;101652.81;;;6.79;64.86
20909;BME280;10614;53.198;6.570;2023-04-06T09:18:10;101650.97;;;6.86;64.44
20909;BME280;10614;53.198;6.570;2023-04-06T09:20:12;101650.91;;;6.93;64.08
20909;BME280;10614;53.198;6.570;2023-04-06T09:22:15;101649.03;;;7.02;63.53
20909;BME280;10614;53.198;6.570;2023-04-06T09:24:16;101646.31;;;7.09;63.86
20909;BME280;10614;53.198;6.570;2023-04-06T09:26:25;101650.56;;;7.18;63.55
20909;BME280;10614;53.198;6.570;2023-04-06T09:28:27;101644.34;;;7.27;62.74
20909;BME280;10614;53.198;6.570;2023-04-06T09:30:29;101640.72;;;7.37;63.14
20909;BME280;10614;53.198;6.570;2023-04-06T09:32:32;101637.94;;;7.49;62.85
20909;BME280;10614;53.198;6.570;2023-04-06T09:34:46;101641.34;;;7.54;61.99
20909;BME280;10614;53.198;6.570;2023-04-06T09:36:49;101637.75;;;7.61;61.90
20909;BME280;10614;53.198;6.570;2023-04-06T09:38:53;101633.25;;;7.70;62.01
20909;BME280;10614;53.198;6.570;2023-04-06T09:40:55;101632.25;;;7.77;61.89
20909;BME280;10614;53.198;6.570;2023-04-06T09:42:57;101625.22;;;7.82;62.02
20909;BME280;10614;53.198;6.570;2023-04-06T09:44:59;101626.81;;;7.91;61.40
20909;BME280;10614;53.198;6.570;2023-04-06T09:47:02;101631.94;;;7.98;61.31
20909;BME280;10614;53.198;6.570;2023-04-06T09:49:10;101626.56;;;8.04;61.02
20909;BME280;10614;53.198;6.570;2023-04-06T09:51:13;101628.25;;;8.10;60.65
20909;BME280;10614;53.198;6.570;2023-04-06T09:53:18;101618.56;;;8.14;60.35
20909;BME280;10614;53.198;6.570;2023-04-06T09:55:24;101617.59;;;8.19;60.28
20909;BME280;10614;53.198;6.570;2023-04-06T09:57:31;101607.91;;;8.23;59.47
20909;BME280;10614;53.198;6.570;2023-04-06T09:59:40;101603.41;;;8.31;58.69
20909;BME280;10614;53.198;6.570;2023-04-06T10:01:46;101603.25;;;8.39;59.07
20909;BME280;10614;53.198;6.570;2023-04-06T10:03:56;101600.56;;;8.43;58.50
20909;BME280;10614;53.198;6.570;2023-04-06T10:06:04;101602.25;;;8.48;58.52
20909;BME280;10614;53.198;6.570;2023-04-06T10:08:09;101599.50;;;8.54;58.40
20909;BME280;10614;53.198;6.570;2023-04-06T10:10:12;101594.16;;;8.57;57.86
20909;BME280;10614;53.198;6.570;2023-04-06T10:12:16;101591.50;;;8.60;58.23
20909;BME280;10614;53.198;6.570;2023-04-06T10:14:18;101591.41;;;8.64;57.64
20909;BME280;10614;53.198;6.570;2023-04-06T10:16:20;101600.91;;;8.70;57.59
20909;BME280;10614;53.198;6.570;2023-04-06T10:18:22;101590.34;;;8.73;57.59
20909;BME280;10614;53.198;6.570;2023-04-06T10:20:28;101598.19;;;8.76;57.63
20909;BME280;10614;53.198;6.570;2023-04-06T10:22:37;101595.47;;;8.81;57.62
20909;BME280;10614;53.198;6.570;2023-04-06T10:24:40;101590.97;;;8.86;57.00
20909;BME280;10614;53.198;6.570;2023-04-06T10:26:42;101592.66;;;8.90;57.44
20909;BME280;10614;53.198;6.570;2023-04-06T10:28:45;101588.94;;;8.99;57.79
20909;BME280;10614;53.198;6.570;2023-04-06T10:30:47;101595.78;;;9.06;56.94
20909;BME280;10614;53.198;6.570;2023-04-06T10:32:49;101584.31;;;9.12;57.21
20909;BME280;10614;53.198;6.570;2023-04-06T10:34:51;101587.69;;;9.17;57.12
20909;BME280;10614;53.198;6.570;2023-04-06T10:36:53;101583.19;;;9.22;56.30
20909;BME280;10614;53.198;6.570;2023-04-06T10:38:58;101587.47;;;9.26;56.21
20909;BME280;10614;53.198;6.570;2023-04-06T10:41:04;101590.09;;;9.27;54.97
20909;BME280;10614;53.198;6.570;2023-04-06T10:43:10;101589.06;;;9.33;53.63
20909;BME280;10614;53.198;6.570;2023-04-06T10:45:19;101590.63;;;9.42;53.63
20909;BME280;10614;53.198;6.570;2023-04-06T10:47:21;101584.25;;;9.52;53.81
20909;BME280;10614;53.198;6.570;2023-04-06T10:49:24;101583.19;;;9.59;53.26